sensor_id;sensor_type;location;lat;lon;timestamp;P1;durP1;ratioP1;P2;durP2;ratioP2
59390;SDS011;53405;57.012;40.984;2022-08-19T00:01:10;14.43;;;8.30;;
59390;SDS011;53405;57.012;40.984;2022-08-19T00:03:59;14.88;;;8.63;;
59390;SDS011;53405;57.012;40.984;2022-08-19T00:06:48;17.95;;;8.68;;
59390;SDS011;53405;57.012;40.984;2022-08-19T00:09:36;16.38;;;9.02;;
59390;SDS011;53405;57.012;40.984;2022-08-19T00:12:24;14.20;;;8.80;;
59390;SDS011;53405;57.012;40.984;2022-08-19T00:15:14;13.13;;;8.13;;
59390;SDS011;53405;57.012;40.984;2022-08-19T00:18:03;13.30;;;8.20;;
59390;SDS011;53405;57.012;40.984;2022-08-19T00:20:50;12.38;;;8.52;;
59390;SDS011;53405;57.012;40.984;2022-08-19T00:23:38;13.73;;;8.45;;
59390;SDS011;53405;57.012;40.984;2022-08-19T00:26:26;13.60;;;8.27;;
59390;SDS011;53405;57.012;40.984;2022-08-19T00:29:15;14.77;;;8.50;;
59390;SDS011;53405;57.012;40.984;2022-08-19T00:32:06;14.68;;;8.65;;
59390;SDS011;53405;57.012;40.984;2022-08-19T00:34:53;14.52;;;8.77;;
59390;SDS011;53405;57.012;40.984;2022-08-19T00:37:41;13.63;;;8.45;;
59390;SDS011;53405;57.012;40.984;2022-08-19T00:40:30;11.15;;;7.97;;
59390;SDS011;53405;57.012;40.984;2022-08-19T00:43:19;12.02;;;7.95;;
59390;SDS011;53405;57.012;40.984;2022-08-19T00:46:08;12.60;;;8.20;;
59390;SDS011;53405;57.012;40.984;2022-08-19T00:48:56;13.10;;;8.35;;
59390;SDS011;53405;57.012;40.984;2022-08-19T00:51:46;13.55;;;8.00;;
59390;SDS011;53405;57.012;40.984;2022-08-19T00:54:37;10.30;;;7.80;;
59390;SDS011;53405;57.012;40.984;2022-08-19T01:00:24;11.30;;;7.65;;
59390;SDS011;53405;57.012;40.984;2022-08-19T01:03:15;10.88;;;7.95;;
59390;SDS011;53405;57.012;40.984;2022-08-19T01:06:04;16.13;;;7.60;;
59390;SDS011;53405;57.012;40.984;2022-08-19T01:08:53;13.20;;;7.80;;
59390;SDS011;53405;57.012;40.984;2022-08-19T01:11:41;10.68;;;7.25;;
59390;SDS011;53405;57.012;40.984;2022-08-19T01:14:31;14.20;;;7.20;;
59390;SDS011;53405;57.012;40.984;2022-08-19T01:17:19;12.27;;;7.53;;
59390;SDS011;53405;57.012;40.984;2022-08-19T01:20:10;11.60;;;7.17;;
59390;SDS011;53405;57.012;40.984;2022-08-19T01:23:02;11.43;;;6.80;;
59390;SDS011;53405;57.012;40.984;2022-08-19T01:25:51;11.53;;;7.90;;
59390;SDS011;53405;57.012;40.984;2022-08-19T01:28:41;10.02;;;6.88;;
59390;SDS011;53405;57.012;40.984;2022-08-19T01:31:31;8.75;;;6.63;;
59390;SDS011;53405;57.012;40.984;2022-08-19T01:34:19;10.93;;;6.50;;
59390;SDS011;53405;57.012;40.984;2022-08-19T01:37:08;11.02;;;6.78;;
59390;SDS011;53405;57.012;40.984;2022-08-19T01:39:58;10.73;;;6.90;;
59390;SDS011;53405;57.012;40.984;2022-08-19T01:42:49;11.35;;;6.85;;
59390;SDS011;53405;57.012;40.984;2022-08-19T01:45:37;11.43;;;6.75;;
59390;SDS011;53405;57.012;40.984;2022-08-19T01:48:27;9.50;;;6.75;;
59390;SDS011;53405;57.012;40.984;2022-08-19T01:51:17;9.50;;;6.68;;
59390;SDS011;53405;57.012;40.984;2022-08-19T01:54:04;14.20;;;7.00;;
59390;SDS011;53405;57.012;40.984;2022-08-19T01:56:53;10.23;;;6.78;;
59390;SDS011;53405;57.012;40.984;2022-08-19T01:59:47;10.52;;;6.65;;
59390;SDS011;53405;57.012;40.984;2022-08-19T02:02:34;8.68;;;6.28;;
59390;SDS011;53405;57.012;40.984;2022-08-19T02:05:22;10.25;;;6.68;;
59390;SDS011;53405;57.012;40.984;2022-08-19T02:08:10;10.40;;;6.50;;
59390;SDS011;53405;57.012;40.984;2022-08-19T02:10:58;9.48;;;6.88;;
59390;SDS011;53405;57.012;40.984;2022-08-19T02:13:45;9.30;;;6.45;;
59390;SDS011;53405;57.012;40.984;2022-08-19T02:16:34;10.75;;;6.50;;
59390;SDS011;53405;57.012;40.984;2022-08-19T02:19:22;10.70;;;6.60;;
59390;SDS011;53405;57.012;40.984;2022-08-19T02:22:10;8.88;;;6.88;;
59390;SDS011;53405;57.012;40.984;2022-08-19T02:24:57;11.38;;;6.50;;
59390;SDS011;53405;57.012;40.984;2022-08-19T02:27:45;12.65;;;7.00;;
59390;SDS011;53405;57.012;40.984;2022-08-19T02:30:33;12.43;;;7.45;;
59390;SDS011;53405;57.012;40.984;2022-08-19T02:33:20;11.68;;;7.07;;
59390;SDS011;53405;57.012;40.984;2022-08-19T02:36:08;12.23;;;6.90;;
59390;SDS011;53405;57.012;40.984;2022-08-19T02:41:44;11.57;;;6.95;;
59390;SDS011;53405;57.012;40.984;2022-08-19T02:44:32;10.95;;;7.18;;
59390;SDS011;53405;57.012;40.984;2022-08-19T02:47:20;11.98;;;6.72;;
59390;SDS011;53405;57.012;40.984;2022-08-19T02:50:08;13.95;;;7.68;;
59390;SDS011;53405;57.012;40.984;2022-08-19T02:52:56;13.25;;;6.95;;
59390;SDS011;53405;57.012;40.984;2022-08-19T02:55:46;13.05;;;7.47;;
59390;SDS011;53405;57.012;40.984;2022-08-19T02:58:34;10.88;;;7.20;;
59390;SDS011;53405;57.012;40.984;2022-08-19T03:01:22;12.90;;;6.95;;
59390;SDS011;53405;57.012;40.984;2022-08-19T03:04:15;14.57;;;7.95;;
59390;SDS011;53405;57.012;40.984;2022-08-19T03:07:03;12.10;;;7.57;;
59390;SDS011;53405;57.012;40.984;2022-08-19T03:09:51;12.88;;;7.90;;
59390;SDS011;53405;57.012;40.984;2022-08-19T03:12:38;9.32;;;6.88;;
59390;SDS011;53405;57.012;40.984;2022-08-19T03:15:26;10.97;;;7.67;;
59390;SDS011;53405;57.012;40.984;2022-08-19T03:18:14;11.73;;;7.53;;
59390;SDS011;53405;57.012;40.984;2022-08-19T03:21:02;15.20;;;8.60;;
59390;SDS011;53405;57.012;40.984;2022-08-19T03:23:53;14.52;;;7.65;;
59390;SDS011;53405;57.012;40.984;2022-08-19T03:26:42;12.85;;;7.70;;
59390;SDS011;53405;57.012;40.984;2022-08-19T03:29:31;11.50;;;7.28;;
59390;SDS011;53405;57.012;40.984;2022-08-19T03:32:20;13.10;;;7.47;;
59390;SDS011;53405;57.012;40.984;2022-08-19T03:35:08;11.43;;;7.70;;
59390;SDS011;53405;57.012;40.984;2022-08-19T03:37:57;15.85;;;7.55;;
59390;SDS011;53405;57.012;40.984;2022-08-19T03:40:45;13.93;;;7.97;;
59390;SDS011;53405;57.012;40.984;2022-08-19T03:43:34;16.38;;;7.40;;
59390;SDS011;53405;57.012;40.984;2022-08-19T03:46:29;18.70;;;8.35;;
59390;SDS011;53405;57.012;40.984;2022-08-19T03:49:19;15.90;;;7.45;;
59390;SDS011;53405;57.012;40.984;2022-08-19T03:52:08;14.15;;;7.72;;
59390;SDS011;53405;57.012;40.984;2022-08-19T03:54:56;13.93;;;7.30;;
59390;SDS011;53405;57.012;40.984;2022-08-19T03:57:44;15.75;;;7.38;;
59390;SDS011;53405;57.012;40.984;2022-08-19T04:00:32;14.02;;;7.95;;
59390;SDS011;53405;57.012;40.984;2022-08-19T04:03:20;11.73;;;6.65;;
59390;SDS011;53405;57.012;40.984;2022-08-19T04:06:18;11.48;;;6.65;;
59390;SDS011;53405;57.012;40.984;2022-08-19T04:09:11;18.13;;;7.47;;
59390;SDS011;53405;57.012;40.984;2022-08-19T04:11:58;11.95;;;6.47;;
59390;SDS011;53405;57.012;40.984;2022-08-19T04:14:46;16.10;;;7.32;;
59390;SDS011;53405;57.012;40.984;2022-08-19T04:17:34;12.70;;;6.75;;
59390;SDS011;53405;57.012;40.984;2022-08-19T04:20:21;13.23;;;7.03;;
59390;SDS011;53405;57.012;40.984;2022-08-19T04:23:09;17.75;;;6.82;;
59390;SDS011;53405;57.012;40.984;2022-08-19T04:25:56;14.30;;;6.70;;
59390;SDS011;53405;57.012;40.984;2022-08-19T04:28:44;13.10;;;6.28;;
59390;SDS011;53405;57.012;40.984;2022-08-19T04:31:33;14.45;;;6.00;;
59390;SDS011;53405;57.012;40.984;2022-08-19T04:34:24;13.52;;;6.13;;
59390;SDS011;53405;57.012;40.984;2022-08-19T04:37:12;11.75;;;5.88;;
59390;SDS011;53405;57.012;40.984;2022-08-19T04:40:02;14.07;;;5.95;;
59390;SDS011;53405;57.012;40.984;2022-08-19T04:43:10;11.73;;;5.65;;
59390;SDS011;53405;57.012;40.984;2022-08-19T04:46:09;10.52;;;5.55;;
59390;SDS011;53405;57.012;40.984;2022-08-19T04:48:59;12.18;;;5.88;;
59390;SDS011;53405;57.012;40.984;2022-08-19T04:51:47;11.27;;;6.20;;
59390;SDS011;53405;57.012;40.984;2022-08-19T04:54:36;17.98;;;5.88;;
59390;SDS011;53405;57.012;40.984;2022-08-19T04:57:25;15.93;;;6.25;;
59390;SDS011;53405;57.012;40.984;2022-08-19T05:00:13;14.43;;;5.70;;
59390;SDS011;53405;57.012;40.984;2022-08-19T05:03:01;15.77;;;6.00;;
59390;SDS011;53405;57.012;40.984;2022-08-19T05:05:49;14.45;;;6.07;;
59390;SDS011;53405;57.012;40.984;2022-08-19T05:08:37;15.68;;;5.90;;
59390;SDS011;53405;57.012;40.984;2022-08-19T05:11:30;12.45;;;5.70;;
59390;SDS011;53405;57.012;40.984;2022-08-19T05:14:20;11.73;;;4.97;;
59390;SDS011;53405;57.012;40.984;2022-08-19T05:17:08;11.50;;;5.03;;
59390;SDS011;53405;57.012;40.984;2022-08-19T05:20:16;10.93;;;5.50;;
59390;SDS011;53405;57.012;40.984;2022-08-19T05:23:21;12.85;;;5.32;;
59390;SDS011;53405;57.012;40.984;2022-08-19T05:26:09;11.15;;;5.40;;
59390;SDS011;53405;57.012;40.984;2022-08-19T05:28:57;9.63;;;5.07;;
59390;SDS011;53405;57.012;40.984;2022-08-19T05:31:46;12.90;;;5.93;;
59390;SDS011;53405;57.012;40.984;2022-08-19T05:34:36;14.25;;;5.45;;
59390;SDS011;53405;57.012;40.984;2022-08-19T05:37:25;11.73;;;5.05;;
59390;SDS011;53405;57.012;40.984;2022-08-19T05:40:14;8.30;;;5.22;;
59390;SDS011;53405;57.012;40.984;2022-08-19T05:43:03;10.45;;;4.97;;
59390;SDS011;53405;57.012;40.984;2022-08-19T05:45:52;9.82;;;5.10;;
59390;SDS011;53405;57.012;40.984;2022-08-19T05:48:39;14.05;;;4.93;;
59390;SDS011;53405;57.012;40.984;2022-08-19T05:51:27;15.02;;;5.90;;
59390;SDS011;53405;57.012;40.984;2022-08-19T05:54:15;12.00;;;5.20;;
59390;SDS011;53405;57.012;40.984;2022-08-19T05:57:03;12.33;;;4.97;;
59390;SDS011;53405;57.012;40.984;2022-08-19T05:59:51;10.27;;;5.22;;
59390;SDS011;53405;57.012;40.984;2022-08-19T06:02:39;8.32;;;4.30;;
59390;SDS011;53405;57.012;40.984;2022-08-19T06:05:27;11.53;;;6.10;;
59390;SDS011;53405;57.012;40.984;2022-08-19T06:08:15;9.20;;;5.30;;
59390;SDS011;53405;57.012;40.984;2022-08-19T06:11:12;8.93;;;4.85;;
59390;SDS011;53405;57.012;40.984;2022-08-19T06:14:11;10.02;;;4.50;;
59390;SDS011;53405;57.012;40.984;2022-08-19T06:17:01;11.82;;;4.88;;
59390;SDS011;53405;57.012;40.984;2022-08-19T06:19:52;14.45;;;5.07;;
59390;SDS011;53405;57.012;40.984;2022-08-19T06:22:44;15.00;;;5.30;;
59390;SDS011;53405;57.012;40.984;2022-08-19T06:25:33;11.23;;;5.05;;
59390;SDS011;53405;57.012;40.984;2022-08-19T06:28:20;16.58;;;5.20;;
59390;SDS011;53405;57.012;40.984;2022-08-19T06:31:10;10.20;;;4.65;;
59390;SDS011;53405;57.012;40.984;2022-08-19T06:34:00;13.05;;;5.05;;
59390;SDS011;53405;57.012;40.984;2022-08-19T06:36:50;11.40;;;4.55;;
59390;SDS011;53405;57.012;40.984;2022-08-19T06:39:40;9.90;;;5.00;;
59390;SDS011;53405;57.012;40.984;2022-08-19T06:42:30;11.90;;;5.07;;
59390;SDS011;53405;57.012;40.984;2022-08-19T06:45:18;9.02;;;5.40;;
59390;SDS011;53405;57.012;40.984;2022-08-19T06:50:54;12.75;;;4.93;;
59390;SDS011;53405;57.012;40.984;2022-08-19T06:53:42;12.32;;;5.00;;
59390;SDS011;53405;57.012;40.984;2022-08-19T06:56:33;10.93;;;5.05;;
59390;SDS011;53405;57.012;40.984;2022-08-19T06:59:22;9.48;;;4.93;;
59390;SDS011;53405;57.012;40.984;2022-08-19T07:02:14;14.48;;;4.50;;
59390;SDS011;53405;57.012;40.984;2022-08-19T07:05:01;14.23;;;5.18;;
59390;SDS011;53405;57.012;40.984;2022-08-19T07:07:51;7.47;;;3.78;;
59390;SDS011;53405;57.012;40.984;2022-08-19T07:10:44;7.55;;;3.28;;
59390;SDS011;53405;57.012;40.984;2022-08-19T07:13:33;10.20;;;4.55;;
59390;SDS011;53405;57.012;40.984;2022-08-19T07:16:23;19.88;;;5.07;;
59390;SDS011;53405;57.012;40.984;2022-08-19T07:19:11;7.97;;;3.28;;
59390;SDS011;53405;57.012;40.984;2022-08-19T07:24:49;12.60;;;5.60;;
59390;SDS011;53405;57.012;40.984;2022-08-19T07:27:37;12.82;;;3.55;;
59390;SDS011;53405;57.012;40.984;2022-08-19T07:30:24;11.77;;;3.28;;
59390;SDS011;53405;57.012;40.984;2022-08-19T07:33:12;9.40;;;3.40;;
59390;SDS011;53405;57.012;40.984;2022-08-19T07:35:59;8.25;;;3.50;;
59390;SDS011;53405;57.012;40.984;2022-08-19T07:38:48;13.52;;;4.40;;
59390;SDS011;53405;57.012;40.984;2022-08-19T07:41:39;14.43;;;4.78;;
59390;SDS011;53405;57.012;40.984;2022-08-19T07:44:27;13.55;;;4.47;;
59390;SDS011;53405;57.012;40.984;2022-08-19T07:47:15;20.38;;;3.97;;
59390;SDS011;53405;57.012;40.984;2022-08-19T07:50:07;12.90;;;3.50;;
59390;SDS011;53405;57.012;40.984;2022-08-19T07:52:56;13.07;;;7.63;;
59390;SDS011;53405;57.012;40.984;2022-08-19T07:55:44;12.00;;;4.57;;
59390;SDS011;53405;57.012;40.984;2022-08-19T07:58:33;13.70;;;4.13;;
59390;SDS011;53405;57.012;40.984;2022-08-19T08:01:23;9.00;;;3.47;;
59390;SDS011;53405;57.012;40.984;2022-08-19T08:04:13;40.85;;;4.72;;
59390;SDS011;53405;57.012;40.984;2022-08-19T08:07:19;10.63;;;3.40;;
59390;SDS011;53405;57.012;40.984;2022-08-19T08:10:25;10.65;;;3.65;;
59390;SDS011;53405;57.012;40.984;2022-08-19T08:13:13;15.90;;;3.40;;
59390;SDS011;53405;57.012;40.984;2022-08-19T08:16:01;11.68;;;3.90;;
59390;SDS011;53405;57.012;40.984;2022-08-19T08:18:49;16.75;;;4.15;;
59390;SDS011;53405;57.012;40.984;2022-08-19T08:21:38;17.08;;;2.85;;
59390;SDS011;53405;57.012;40.984;2022-08-19T08:24:27;9.55;;;2.95;;
59390;SDS011;53405;57.012;40.984;2022-08-19T08:27:17;9.10;;;3.05;;
59390;SDS011;53405;57.012;40.984;2022-08-19T08:30:21;10.77;;;3.65;;
59390;SDS011;53405;57.012;40.984;2022-08-19T08:33:13;12.75;;;4.22;;
59390;SDS011;53405;57.012;40.984;2022-08-19T08:36:04;16.15;;;3.47;;
59390;SDS011;53405;57.012;40.984;2022-08-19T08:38:52;12.02;;;2.60;;
59390;SDS011;53405;57.012;40.984;2022-08-19T08:41:57;12.77;;;2.92;;
59390;SDS011;53405;57.012;40.984;2022-08-19T08:47:46;17.08;;;2.92;;
59390;SDS011;53405;57.012;40.984;2022-08-19T08:50:41;20.38;;;3.15;;
59390;SDS011;53405;57.012;40.984;2022-08-19T08:53:31;25.90;;;2.95;;
59390;SDS011;53405;57.012;40.984;2022-08-19T08:56:25;19.60;;;2.63;;
59390;SDS011;53405;57.012;40.984;2022-08-19T08:59:20;12.13;;;2.95;;
59390;SDS011;53405;57.012;40.984;2022-08-19T09:02:13;13.50;;;2.78;;
59390;SDS011;53405;57.012;40.984;2022-08-19T09:05:02;18.95;;;3.03;;
59390;SDS011;53405;57.012;40.984;2022-08-19T09:10:44;15.13;;;3.78;;
59390;SDS011;53405;57.012;40.984;2022-08-19T09:13:42;34.17;;;4.30;;
59390;SDS011;53405;57.012;40.984;2022-08-19T09:16:43;34.22;;;3.60;;
59390;SDS011;53405;57.012;40.984;2022-08-19T09:19:31;23.33;;;3.10;;
59390;SDS011;53405;57.012;40.984;2022-08-19T09:25:11;29.77;;;3.13;;
59390;SDS011;53405;57.012;40.984;2022-08-19T09:28:02;11.55;;;2.35;;
59390;SDS011;53405;57.012;40.984;2022-08-19T09:30:50;10.13;;;2.35;;
59390;SDS011;53405;57.012;40.984;2022-08-19T09:33:38;11.27;;;2.50;;
59390;SDS011;53405;57.012;40.984;2022-08-19T09:36:27;9.68;;;2.42;;
59390;SDS011;53405;57.012;40.984;2022-08-19T09:39:19;10.82;;;3.17;;
59390;SDS011;53405;57.012;40.984;2022-08-19T09:42:08;7.20;;;2.28;;
59390;SDS011;53405;57.012;40.984;2022-08-19T09:45:00;9.93;;;3.00;;
59390;SDS011;53405;57.012;40.984;2022-08-19T09:47:50;16.00;;;2.42;;
59390;SDS011;53405;57.012;40.984;2022-08-19T09:50:39;8.93;;;2.13;;
59390;SDS011;53405;57.012;40.984;2022-08-19T09:53:27;9.73;;;2.13;;
59390;SDS011;53405;57.012;40.984;2022-08-19T09:56:16;14.80;;;2.58;;
59390;SDS011;53405;57.012;40.984;2022-08-19T09:59:06;11.88;;;2.50;;
59390;SDS011;53405;57.012;40.984;2022-08-19T10:01:54;8.48;;;2.30;;
59390;SDS011;53405;57.012;40.984;2022-08-19T10:04:41;8.85;;;2.38;;
59390;SDS011;53405;57.012;40.984;2022-08-19T10:07:49;9.90;;;3.23;;
59390;SDS011;53405;57.012;40.984;2022-08-19T10:10:37;13.02;;;3.10;;
59390;SDS011;53405;57.012;40.984;2022-08-19T10:13:26;11.65;;;2.90;;
59390;SDS011;53405;57.012;40.984;2022-08-19T10:16:17;24.38;;;2.70;;
59390;SDS011;53405;57.012;40.984;2022-08-19T10:19:06;8.40;;;2.78;;
59390;SDS011;53405;57.012;40.984;2022-08-19T10:21:54;8.95;;;2.60;;
59390;SDS011;53405;57.012;40.984;2022-08-19T10:24:41;12.18;;;2.72;;
59390;SDS011;53405;57.012;40.984;2022-08-19T10:27:29;13.20;;;2.25;;
59390;SDS011;53405;57.012;40.984;2022-08-19T10:30:18;10.98;;;2.22;;
59390;SDS011;53405;57.012;40.984;2022-08-19T10:33:06;11.27;;;2.28;;
59390;SDS011;53405;57.012;40.984;2022-08-19T10:36:01;10.57;;;2.75;;
59390;SDS011;53405;57.012;40.984;2022-08-19T10:38:52;13.93;;;2.45;;
59390;SDS011;53405;57.012;40.984;2022-08-19T10:41:44;7.88;;;2.08;;
59390;SDS011;53405;57.012;40.984;2022-08-19T10:44:32;10.05;;;2.40;;
59390;SDS011;53405;57.012;40.984;2022-08-19T10:47:22;13.55;;;2.55;;
59390;SDS011;53405;57.012;40.984;2022-08-19T10:50:10;8.68;;;2.28;;
59390;SDS011;53405;57.012;40.984;2022-08-19T10:53:16;11.60;;;3.00;;
59390;SDS011;53405;57.012;40.984;2022-08-19T10:56:03;8.10;;;2.55;;
59390;SDS011;53405;57.012;40.984;2022-08-19T10:59:10;7.13;;;2.22;;
59390;SDS011;53405;57.012;40.984;2022-08-19T11:02:00;9.82;;;2.30;;
59390;SDS011;53405;57.012;40.984;2022-08-19T11:04:49;6.35;;;1.92;;
59390;SDS011;53405;57.012;40.984;2022-08-19T11:07:38;9.73;;;2.50;;
59390;SDS011;53405;57.012;40.984;2022-08-19T11:10:27;8.80;;;2.03;;
59390;SDS011;53405;57.012;40.984;2022-08-19T11:13:14;9.30;;;2.40;;
59390;SDS011;53405;57.012;40.984;2022-08-19T11:16:04;9.63;;;2.47;;
59390;SDS011;53405;57.012;40.984;2022-08-19T11:18:57;7.70;;;2.35;;
59390;SDS011;53405;57.012;40.984;2022-08-19T11:21:47;9.95;;;2.83;;
59390;SDS011;53405;57.012;40.984;2022-08-19T11:24:35;7.55;;;2.70;;
59390;SDS011;53405;57.012;40.984;2022-08-19T11:27:23;14.20;;;2.63;;
59390;SDS011;53405;57.012;40.984;2022-08-19T11:30:11;9.00;;;2.85;;
59390;SDS011;53405;57.012;40.984;2022-08-19T11:33:00;9.68;;;2.40;;
59390;SDS011;53405;57.012;40.984;2022-08-19T11:35:48;14.35;;;2.65;;
59390;SDS011;53405;57.012;40.984;2022-08-19T11:38:36;9.23;;;2.70;;
59390;SDS011;53405;57.012;40.984;2022-08-19T11:41:24;14.52;;;3.15;;
59390;SDS011;53405;57.012;40.984;2022-08-19T11:44:13;9.07;;;3.13;;
59390;SDS011;53405;57.012;40.984;2022-08-19T11:47:01;10.63;;;2.75;;
59390;SDS011;53405;57.012;40.984;2022-08-19T11:49:48;8.00;;;2.93;;
59390;SDS011;53405;57.012;40.984;2022-08-19T11:52:36;18.80;;;3.43;;
59390;SDS011;53405;57.012;40.984;2022-08-19T11:55:23;11.67;;;3.20;;
59390;SDS011;53405;57.012;40.984;2022-08-19T11:58:12;17.63;;;4.70;;
59390;SDS011;53405;57.012;40.984;2022-08-19T12:01:04;9.07;;;4.18;;
59390;SDS011;53405;57.012;40.984;2022-08-19T12:03:54;12.13;;;4.35;;
59390;SDS011;53405;57.012;40.984;2022-08-19T12:06:43;10.55;;;4.18;;
59390;SDS011;53405;57.012;40.984;2022-08-19T12:09:31;8.98;;;3.65;;
59390;SDS011;53405;57.012;40.984;2022-08-19T12:12:21;12.07;;;3.92;;
59390;SDS011;53405;57.012;40.984;2022-08-19T12:15:11;12.93;;;4.43;;
59390;SDS011;53405;57.012;40.984;2022-08-19T12:18:15;12.60;;;3.80;;
59390;SDS011;53405;57.012;40.984;2022-08-19T12:21:03;8.97;;;4.47;;
59390;SDS011;53405;57.012;40.984;2022-08-19T12:23:50;12.25;;;4.13;;
59390;SDS011;53405;57.012;40.984;2022-08-19T12:26:41;13.95;;;3.78;;
59390;SDS011;53405;57.012;40.984;2022-08-19T12:32:17;10.02;;;3.72;;
59390;SDS011;53405;57.012;40.984;2022-08-19T12:35:06;10.40;;;3.55;;
59390;SDS011;53405;57.012;40.984;2022-08-19T12:37:56;9.70;;;3.55;;
59390;SDS011;53405;57.012;40.984;2022-08-19T12:40:46;12.60;;;3.83;;
59390;SDS011;53405;57.012;40.984;2022-08-19T12:43:35;14.55;;;3.78;;
59390;SDS011;53405;57.012;40.984;2022-08-19T12:46:24;11.00;;;3.92;;
59390;SDS011;53405;57.012;40.984;2022-08-19T12:49:12;9.10;;;3.77;;
59390;SDS011;53405;57.012;40.984;2022-08-19T12:52:00;16.03;;;5.17;;
59390;SDS011;53405;57.012;40.984;2022-08-19T12:54:48;14.20;;;4.65;;
59390;SDS011;53405;57.012;40.984;2022-08-19T12:57:36;15.35;;;4.70;;
59390;SDS011;53405;57.012;40.984;2022-08-19T13:00:24;17.25;;;4.50;;
59390;SDS011;53405;57.012;40.984;2022-08-19T13:03:12;18.00;;;5.45;;
59390;SDS011;53405;57.012;40.984;2022-08-19T13:06:00;12.60;;;4.47;;
59390;SDS011;53405;57.012;40.984;2022-08-19T13:08:48;13.95;;;4.82;;
59390;SDS011;53405;57.012;40.984;2022-08-19T13:11:36;15.18;;;5.00;;
59390;SDS011;53405;57.012;40.984;2022-08-19T13:14:25;11.52;;;4.80;;
59390;SDS011;53405;57.012;40.984;2022-08-19T13:17:12;14.63;;;5.27;;
59390;SDS011;53405;57.012;40.984;2022-08-19T13:20:02;13.40;;;5.28;;
59390;SDS011;53405;57.012;40.984;2022-08-19T13:22:52;12.80;;;5.18;;
59390;SDS011;53405;57.012;40.984;2022-08-19T13:25:44;13.15;;;5.00;;
59390;SDS011;53405;57.012;40.984;2022-08-19T13:28:32;13.27;;;5.40;;
59390;SDS011;53405;57.012;40.984;2022-08-19T13:31:40;16.03;;;5.40;;
59390;SDS011;53405;57.012;40.984;2022-08-19T13:34:47;13.23;;;4.90;;
59390;SDS011;53405;57.012;40.984;2022-08-19T13:37:34;12.10;;;5.10;;
59390;SDS011;53405;57.012;40.984;2022-08-19T13:40:32;22.38;;;6.95;;
59390;SDS011;53405;57.012;40.984;2022-08-19T13:43:22;15.45;;;6.15;;
59390;SDS011;53405;57.012;40.984;2022-08-19T13:46:13;22.90;;;6.07;;
59390;SDS011;53405;57.012;40.984;2022-08-19T13:49:00;14.07;;;5.43;;
59390;SDS011;53405;57.012;40.984;2022-08-19T13:51:48;13.45;;;5.55;;
59390;SDS011;53405;57.012;40.984;2022-08-19T13:54:36;14.38;;;4.95;;
59390;SDS011;53405;57.012;40.984;2022-08-19T13:57:23;17.67;;;5.37;;
59390;SDS011;53405;57.012;40.984;2022-08-19T14:00:15;16.33;;;5.60;;
59390;SDS011;53405;57.012;40.984;2022-08-19T14:03:05;14.32;;;5.50;;
59390;SDS011;53405;57.012;40.984;2022-08-19T14:05:54;11.40;;;5.10;;
59390;SDS011;53405;57.012;40.984;2022-08-19T14:08:43;21.70;;;6.15;;
59390;SDS011;53405;57.012;40.984;2022-08-19T14:11:32;13.60;;;5.20;;
59390;SDS011;53405;57.012;40.984;2022-08-19T14:14:19;15.90;;;5.38;;
59390;SDS011;53405;57.012;40.984;2022-08-19T14:17:07;14.02;;;5.43;;
59390;SDS011;53405;57.012;40.984;2022-08-19T14:19:57;12.32;;;5.68;;
59390;SDS011;53405;57.012;40.984;2022-08-19T14:22:54;15.52;;;5.90;;
59390;SDS011;53405;57.012;40.984;2022-08-19T14:25:42;15.30;;;5.70;;
59390;SDS011;53405;57.012;40.984;2022-08-19T14:28:31;18.42;;;6.32;;
59390;SDS011;53405;57.012;40.984;2022-08-19T14:31:19;11.52;;;5.80;;
59390;SDS011;53405;57.012;40.984;2022-08-19T14:34:08;12.85;;;5.82;;
59390;SDS011;53405;57.012;40.984;2022-08-19T14:36:57;14.52;;;5.90;;
59390;SDS011;53405;57.012;40.984;2022-08-19T14:39:45;17.60;;;6.25;;
59390;SDS011;53405;57.012;40.984;2022-08-19T14:42:33;19.08;;;6.88;;
59390;SDS011;53405;57.012;40.984;2022-08-19T14:45:22;15.98;;;6.80;;
59390;SDS011;53405;57.012;40.984;2022-08-19T14:48:09;13.80;;;7.15;;
59390;SDS011;53405;57.012;40.984;2022-08-19T14:50:57;12.40;;;7.50;;
59390;SDS011;53405;57.012;40.984;2022-08-19T14:53:44;15.38;;;7.13;;
59390;SDS011;53405;57.012;40.984;2022-08-19T14:56:35;14.90;;;7.80;;
59390;SDS011;53405;57.012;40.984;2022-08-19T14:59:23;17.37;;;8.57;;
59390;SDS011;53405;57.012;40.984;2022-08-19T15:02:11;16.98;;;8.95;;
59390;SDS011;53405;57.012;40.984;2022-08-19T15:04:59;14.48;;;8.20;;
59390;SDS011;53405;57.012;40.984;2022-08-19T15:07:48;16.52;;;8.55;;
59390;SDS011;53405;57.012;40.984;2022-08-19T15:10:38;16.13;;;9.00;;
59390;SDS011;53405;57.012;40.984;2022-08-19T15:13:27;18.58;;;9.18;;
59390;SDS011;53405;57.012;40.984;2022-08-19T15:16:16;18.63;;;10.13;;
59390;SDS011;53405;57.012;40.984;2022-08-19T15:19:05;19.67;;;10.57;;
59390;SDS011;53405;57.012;40.984;2022-08-19T15:21:52;21.02;;;11.13;;
59390;SDS011;53405;57.012;40.984;2022-08-19T15:24:41;19.95;;;11.88;;
59390;SDS011;53405;57.012;40.984;2022-08-19T15:27:32;22.67;;;13.63;;
59390;SDS011;53405;57.012;40.984;2022-08-19T15:30:23;23.70;;;16.40;;
59390;SDS011;53405;57.012;40.984;2022-08-19T15:33:14;24.50;;;18.27;;
59390;SDS011;53405;57.012;40.984;2022-08-19T15:36:03;28.40;;;21.10;;
59390;SDS011;53405;57.012;40.984;2022-08-19T15:38:52;29.13;;;23.38;;
59390;SDS011;53405;57.012;40.984;2022-08-19T15:41:41;36.78;;;27.40;;
59390;SDS011;53405;57.012;40.984;2022-08-19T15:44:29;34.40;;;26.20;;
59390;SDS011;53405;57.012;40.984;2022-08-19T15:47:17;32.58;;;26.50;;
59390;SDS011;53405;57.012;40.984;2022-08-19T15:50:07;36.85;;;28.42;;
59390;SDS011;53405;57.012;40.984;2022-08-19T15:52:58;38.72;;;29.15;;
59390;SDS011;53405;57.012;40.984;2022-08-19T15:55:50;38.83;;;30.40;;
59390;SDS011;53405;57.012;40.984;2022-08-19T15:58:38;39.72;;;30.13;;
59390;SDS011;53405;57.012;40.984;2022-08-19T16:01:44;33.65;;;29.20;;
59390;SDS011;53405;57.012;40.984;2022-08-19T16:04:32;38.78;;;31.05;;
59390;SDS011;53405;57.012;40.984;2022-08-19T16:07:47;41.15;;;29.80;;
59390;SDS011;53405;57.012;40.984;2022-08-19T16:10:35;41.00;;;31.00;;
59390;SDS011;53405;57.012;40.984;2022-08-19T16:13:24;44.47;;;31.38;;
59390;SDS011;53405;57.012;40.984;2022-08-19T16:16:11;41.83;;;31.08;;
59390;SDS011;53405;57.012;40.984;2022-08-19T16:19:01;36.10;;;28.83;;
59390;SDS011;53405;57.012;40.984;2022-08-19T16:21:51;36.85;;;28.30;;
59390;SDS011;53405;57.012;40.984;2022-08-19T16:24:41;38.45;;;29.42;;
59390;SDS011;53405;57.012;40.984;2022-08-19T16:27:29;35.92;;;28.83;;
59390;SDS011;53405;57.012;40.984;2022-08-19T16:30:17;38.25;;;28.08;;
59390;SDS011;53405;57.012;40.984;2022-08-19T16:33:05;36.33;;;27.20;;
59390;SDS011;53405;57.012;40.984;2022-08-19T16:35:54;49.33;;;29.15;;
59390;SDS011;53405;57.012;40.984;2022-08-19T16:38:42;40.08;;;29.85;;
59390;SDS011;53405;57.012;40.984;2022-08-19T16:41:32;38.58;;;29.25;;
59390;SDS011;53405;57.012;40.984;2022-08-19T16:44:20;39.72;;;29.58;;
59390;SDS011;53405;57.012;40.984;2022-08-19T16:47:08;41.28;;;30.73;;
59390;SDS011;53405;57.012;40.984;2022-08-19T16:49:56;45.00;;;32.92;;
59390;SDS011;53405;57.012;40.984;2022-08-19T16:52:45;49.28;;;34.67;;
59390;SDS011;53405;57.012;40.984;2022-08-19T16:55:33;55.35;;;35.53;;
59390;SDS011;53405;57.012;40.984;2022-08-19T16:58:21;45.92;;;34.28;;